AAL2367 MDSD-KMIA
Flight info
| Callsign | AAL2367 |
|---|---|
| Flight time | 1h 58m |
| Altitude | 34000 |
| Route | MALVN2J MALVN Y261 MADIZ VIICE2 |
| Aircraft | B738/M-SDE2E3FGHIRWXY/LB1 |
Departure
| Time | 2026-04-30 20:51 |
|---|---|
| Airport | Las Américas International Airport (MDSD) |
Arrival
| Time | 2026-04-30 22:49 |
|---|---|
| Airport | Miami International Airport (KMIA) |
| Time | Latitude | Longitude | Altitude | Speed | Heading |
|---|---|---|---|---|---|
| 2026-04-30 20:39 | 18.43157 | -69.67564 | 62 ft | 1 kts | 241° |
| 2026-04-30 20:40 | 18.43158 | -69.67564 | 62 ft | 1 kts | 241° |
| 2026-04-30 20:40 | 18.43169 | -69.67542 | 53 ft | 4 kts | 247° |
| 2026-04-30 20:41 | 18.43181 | -69.67500 | 58 ft | 0 kts | 258° |
| 2026-04-30 20:46 | 18.43291 | -69.67528 | 53 ft | 1 kts | 346° |
| 2026-04-30 20:46 | 18.43321 | -69.67537 | 58 ft | 8 kts | 343° |
| 2026-04-30 20:47 | 18.43490 | -69.67550 | 55 ft | 15 kts | 335° |
| 2026-04-30 20:47 | 18.43598 | -69.67595 | 59 ft | 20 kts | 340° |
| 2026-04-30 20:48 | 18.43825 | -69.67686 | 50 ft | 16 kts | 339° |
| 2026-04-30 20:48 | 18.43948 | -69.67736 | 53 ft | 22 kts | 340° |
| 2026-04-30 20:48 | 18.44043 | -69.67778 | 56 ft | 11 kts | 338° |
| 2026-04-30 20:48 | 18.44123 | -69.67774 | 52 ft | 13 kts | 40° |
| 2026-04-30 20:49 | 18.44165 | -69.67682 | 53 ft | 15 kts | 68° |
| 2026-04-30 20:49 | 18.44205 | -69.67589 | 52 ft | 12 kts | 57° |
| 2026-04-30 20:49 | 18.44271 | -69.67541 | 54 ft | 6 kts | 19° |
| 2026-04-30 20:50 | 18.44358 | -69.67468 | 53 ft | 10 kts | 82° |
| 2026-04-30 20:50 | 18.44333 | -69.67398 | 53 ft | 12 kts | 154° |
| 2026-04-30 20:50 | 18.44162 | -69.67333 | 55 ft | 54 kts | 161° |
| 2026-04-30 20:50 | 18.43588 | -69.67124 | 56 ft | 118 kts | 161° |
| 2026-04-30 20:51 | 18.42646 | -69.66775 | 84 ft | 167 kts | 161° |
| 2026-04-30 20:51 | 18.40166 | -69.65920 | 958 ft | 203 kts | 159° |
| 2026-04-30 20:51 | 18.38775 | -69.65446 | 1464 ft | 217 kts | 162° |
| 2026-04-30 20:52 | 18.37253 | -69.65455 | 1828 ft | 234 kts | 199° |
| 2026-04-30 20:52 | 18.36044 | -69.66602 | 2303 ft | 243 kts | 244° |
| 2026-04-30 20:52 | 18.35157 | -69.70060 | 3306 ft | 260 kts | 250° |
| 2026-04-30 20:53 | 18.34536 | -69.71914 | 3753 ft | 273 kts | 252° |
| 2026-04-30 20:53 | 18.33965 | -69.73829 | 4555 ft | 272 kts | 252° |
| 2026-04-30 20:53 | 18.33398 | -69.75732 | 5337 ft | 273 kts | 252° |
| 2026-04-30 20:54 | 18.33496 | -69.79608 | 6774 ft | 275 kts | 298° |
| 2026-04-30 20:54 | 18.34393 | -69.81395 | 7462 ft | 278 kts | 296° |
| 2026-04-30 20:54 | 18.35245 | -69.83229 | 8209 ft | 277 kts | 295° |
| 2026-04-30 20:55 | 18.36924 | -69.86881 | 9732 ft | 278 kts | 294° |
| 2026-04-30 20:55 | 18.37772 | -69.88724 | 10359 ft | 282 kts | 294° |
| 2026-04-30 20:55 | 18.38633 | -69.90596 | 10970 ft | 285 kts | 294° |
| 2026-04-30 20:56 | 18.40285 | -69.94184 | 12272 ft | 288 kts | 294° |
| 2026-04-30 20:56 | 18.41163 | -69.96090 | 12964 ft | 290 kts | 294° |
| 2026-04-30 20:56 | 18.42937 | -69.99944 | 14308 ft | 295 kts | 294° |
| 2026-04-30 20:57 | 18.43834 | -70.01894 | 14959 ft | 297 kts | 294° |
| 2026-04-30 20:57 | 18.44737 | -70.03858 | 15615 ft | 299 kts | 294° |
| 2026-04-30 20:57 | 18.45646 | -70.05836 | 16284 ft | 301 kts | 294° |
| 2026-04-30 20:58 | 18.47419 | -70.09694 | 17521 ft | 307 kts | 293° |
| 2026-04-30 20:58 | 18.48366 | -70.11718 | 18211 ft | 309 kts | 297° |
| 2026-04-30 20:58 | 18.49775 | -70.13458 | 18729 ft | 319 kts | 318° |
| 2026-04-30 20:58 | 18.51655 | -70.14743 | 19264 ft | 326 kts | 327° |
| 2026-04-30 20:59 | 18.55788 | -70.16901 | 20177 ft | 341 kts | 330° |
| 2026-04-30 20:59 | 18.57999 | -70.17992 | 20269 ft | 359 kts | 330° |
| 2026-04-30 21:00 | 18.62718 | -70.20336 | 20501 ft | 390 kts | 330° |
| 2026-04-30 21:00 | 18.67745 | -70.22869 | 20682 ft | 415 kts | 330° |
| 2026-04-30 21:01 | 18.73085 | -70.25592 | 20843 ft | 437 kts | 330° |
| 2026-04-30 21:01 | 18.75845 | -70.27003 | 21016 ft | 443 kts | 330° |
| 2026-04-30 21:01 | 18.81377 | -70.29872 | 21791 ft | 444 kts | 330° |
| 2026-04-30 21:02 | 18.84170 | -70.31291 | 22037 ft | 448 kts | 330° |
| 2026-04-30 21:02 | 18.86998 | -70.32721 | 22284 ft | 452 kts | 331° |
| 2026-04-30 21:02 | 18.89884 | -70.34059 | 22660 ft | 453 kts | 331° |
| 2026-04-30 21:02 | 18.92728 | -70.35513 | 22985 ft | 455 kts | 329° |
| 2026-04-30 21:03 | 18.95564 | -70.37022 | 23266 ft | 457 kts | 329° |
| 2026-04-30 21:03 | 18.98412 | -70.38530 | 23555 ft | 459 kts | 329° |
| 2026-04-30 21:03 | 19.00345 | -70.39545 | 23709 ft | 460 kts | 329° |
| 2026-04-30 21:03 | 19.03224 | -70.41043 | 23969 ft | 462 kts | 329° |
| 2026-04-30 21:04 | 19.06111 | -70.42535 | 24240 ft | 462 kts | 329° |
| 2026-04-30 21:04 | 19.09009 | -70.44026 | 24486 ft | 463 kts | 329° |
| 2026-04-30 21:04 | 19.14783 | -70.46989 | 24899 ft | 466 kts | 329° |
| 2026-04-30 21:05 | 19.17743 | -70.48518 | 25127 ft | 468 kts | 329° |
| 2026-04-30 21:05 | 19.20671 | -70.50031 | 25375 ft | 469 kts | 329° |
| 2026-04-30 21:05 | 19.24560 | -70.52033 | 25708 ft | 470 kts | 329° |
| 2026-04-30 21:05 | 19.26543 | -70.53055 | 25855 ft | 470 kts | 329° |
| 2026-04-30 21:06 | 19.29448 | -70.54553 | 26044 ft | 472 kts | 329° |
| 2026-04-30 21:06 | 19.32410 | -70.56082 | 26172 ft | 475 kts | 329° |
| 2026-04-30 21:06 | 19.35383 | -70.57617 | 26406 ft | 475 kts | 329° |
| 2026-04-30 21:06 | 19.38348 | -70.59147 | 26741 ft | 473 kts | 329° |
| 2026-04-30 21:07 | 19.41282 | -70.60694 | 27105 ft | 469 kts | 326° |
| 2026-04-30 21:07 | 19.44031 | -70.62516 | 27384 ft | 464 kts | 320° |
| 2026-04-30 21:07 | 19.46627 | -70.64535 | 27677 ft | 462 kts | 317° |
| 2026-04-30 21:07 | 19.49163 | -70.66615 | 28008 ft | 460 kts | 317° |
| 2026-04-30 21:08 | 19.51684 | -70.68694 | 28366 ft | 459 kts | 317° |
| 2026-04-30 21:08 | 19.54213 | -70.70752 | 28741 ft | 457 kts | 317° |
| 2026-04-30 21:08 | 19.56750 | -70.72780 | 29103 ft | 456 kts | 318° |
| 2026-04-30 21:08 | 19.59287 | -70.74786 | 29448 ft | 454 kts | 318° |
| 2026-04-30 21:09 | 19.61824 | -70.76773 | 29809 ft | 453 kts | 318° |
| 2026-04-30 21:09 | 19.64371 | -70.78756 | 30029 ft | 455 kts | 318° |
| 2026-04-30 21:09 | 19.66922 | -70.80737 | 30314 ft | 454 kts | 318° |
| 2026-04-30 21:09 | 19.69472 | -70.82716 | 30629 ft | 453 kts | 318° |
| 2026-04-30 21:10 | 19.72003 | -70.84682 | 30995 ft | 450 kts | 318° |
| 2026-04-30 21:10 | 19.74526 | -70.86645 | 31306 ft | 449 kts | 318° |
| 2026-04-30 21:10 | 19.77045 | -70.88609 | 31549 ft | 450 kts | 319° |
| 2026-04-30 21:10 | 19.79577 | -70.90585 | 31711 ft | 453 kts | 319° |
| 2026-04-30 21:11 | 19.82113 | -70.92565 | 32028 ft | 451 kts | 319° |
| 2026-04-30 21:11 | 19.84635 | -70.94533 | 32439 ft | 448 kts | 319° |
| 2026-04-30 21:11 | 19.87135 | -70.96483 | 32821 ft | 445 kts | 319° |
| 2026-04-30 21:11 | 19.89628 | -70.98431 | 33143 ft | 444 kts | 319° |
| 2026-04-30 21:12 | 19.92114 | -71.00374 | 33427 ft | 444 kts | 319° |
| 2026-04-30 21:12 | 19.94596 | -71.02315 | 33711 ft | 443 kts | 319° |
| 2026-04-30 21:12 | 19.97073 | -71.04253 | 33964 ft | 442 kts | 319° |
| 2026-04-30 21:12 | 19.99563 | -71.06203 | 33940 ft | 445 kts | 319° |
| 2026-04-30 21:13 | 20.04549 | -71.10107 | 33946 ft | 443 kts | 319° |
| 2026-04-30 21:13 | 20.09488 | -71.13976 | 33949 ft | 440 kts | 319° |
| 2026-04-30 21:14 | 20.14404 | -71.17832 | 33961 ft | 438 kts | 319° |
| 2026-04-30 21:14 | 20.19303 | -71.21677 | 33953 ft | 437 kts | 319° |
| 2026-04-30 21:15 | 20.24197 | -71.25522 | 33953 ft | 437 kts | 319° |
| 2026-04-30 21:15 | 20.29085 | -71.29365 | 33953 ft | 437 kts | 319° |
| 2026-04-30 21:16 | 20.33974 | -71.33213 | 33948 ft | 437 kts | 319° |
| 2026-04-30 21:16 | 20.38866 | -71.37065 | 33957 ft | 438 kts | 319° |
| 2026-04-30 21:17 | 20.43210 | -71.41409 | 33961 ft | 426 kts | 297° |
| 2026-04-30 21:17 | 20.46336 | -71.46781 | 33964 ft | 428 kts | 300° |
| 2026-04-30 21:18 | 20.49684 | -71.52055 | 33955 ft | 430 kts | 301° |
| 2026-04-30 21:18 | 20.53051 | -71.57338 | 33956 ft | 431 kts | 301° |
| 2026-04-30 21:19 | 20.56410 | -71.62651 | 33960 ft | 432 kts | 301° |
| 2026-04-30 21:19 | 20.59762 | -71.67982 | 33958 ft | 433 kts | 301° |
| 2026-04-30 21:20 | 20.63112 | -71.73320 | 33954 ft | 433 kts | 301° |
| 2026-04-30 21:20 | 20.66459 | -71.78657 | 33953 ft | 432 kts | 301° |
| 2026-04-30 21:21 | 20.69800 | -71.83990 | 33954 ft | 432 kts | 300° |
| 2026-04-30 21:22 | 20.74802 | -71.91983 | 33955 ft | 431 kts | 301° |
| 2026-04-30 21:23 | 20.81453 | -72.02630 | 33951 ft | 430 kts | 301° |
| 2026-04-30 21:23 | 20.86423 | -72.10599 | 33954 ft | 429 kts | 301° |
| 2026-04-30 21:24 | 20.89734 | -72.15912 | 33951 ft | 429 kts | 301° |
| 2026-04-30 21:24 | 20.93041 | -72.21227 | 33956 ft | 429 kts | 301° |
| 2026-04-30 21:25 | 20.97999 | -72.29202 | 33954 ft | 429 kts | 301° |
| 2026-04-30 21:26 | 21.02960 | -72.37194 | 33955 ft | 430 kts | 301° |
| 2026-04-30 21:27 | 21.07919 | -72.45194 | 33962 ft | 430 kts | 301° |
| 2026-04-30 21:27 | 21.11204 | -72.50500 | 33959 ft | 431 kts | 301° |
| 2026-04-30 21:28 | 21.16168 | -72.58527 | 33959 ft | 431 kts | 301° |
| 2026-04-30 21:29 | 21.21134 | -72.66570 | 33961 ft | 432 kts | 301° |
| 2026-04-30 21:30 | 21.29432 | -72.80044 | 33964 ft | 435 kts | 302° |
| 2026-04-30 21:31 | 21.37785 | -72.93640 | 33960 ft | 438 kts | 302° |
| 2026-04-30 21:32 | 21.42811 | -73.01838 | 33958 ft | 439 kts | 302° |
| 2026-04-30 21:32 | 21.46165 | -73.07315 | 33959 ft | 439 kts | 302° |
| 2026-04-30 21:33 | 21.51200 | -73.15547 | 33959 ft | 439 kts | 302° |
| 2026-04-30 21:34 | 21.54553 | -73.21037 | 33963 ft | 439 kts | 302° |
| 2026-04-30 21:34 | 21.59573 | -73.29264 | 33956 ft | 439 kts | 302° |
| 2026-04-30 21:35 | 21.62917 | -73.34751 | 33954 ft | 439 kts | 303° |
| 2026-04-30 21:35 | 21.66258 | -73.40242 | 33958 ft | 439 kts | 303° |
| 2026-04-30 21:36 | 21.69598 | -73.45735 | 33957 ft | 439 kts | 303° |
| 2026-04-30 21:37 | 21.76278 | -73.56737 | 33962 ft | 439 kts | 303° |
| 2026-04-30 21:37 | 21.79619 | -73.62247 | 33962 ft | 440 kts | 303° |
| 2026-04-30 21:38 | 21.82962 | -73.67760 | 33954 ft | 440 kts | 304° |
| 2026-04-30 21:38 | 21.86304 | -73.73284 | 33961 ft | 440 kts | 304° |
| 2026-04-30 21:39 | 21.89643 | -73.78813 | 33959 ft | 441 kts | 304° |
| 2026-04-30 21:39 | 21.92986 | -73.84352 | 33962 ft | 441 kts | 304° |
| 2026-04-30 21:40 | 21.96329 | -73.89895 | 33962 ft | 441 kts | 304° |
| 2026-04-30 21:40 | 21.99673 | -73.95442 | 33963 ft | 441 kts | 305° |
| 2026-04-30 21:41 | 22.03013 | -74.00991 | 33949 ft | 442 kts | 305° |
| 2026-04-30 21:41 | 22.06330 | -74.06508 | 33959 ft | 441 kts | 305° |
| 2026-04-30 21:42 | 22.09667 | -74.12063 | 33958 ft | 441 kts | 305° |
| 2026-04-30 21:42 | 22.13000 | -74.17618 | 33959 ft | 441 kts | 305° |
| 2026-04-30 21:43 | 22.15789 | -74.22270 | 33958 ft | 441 kts | 305° |
| 2026-04-30 21:43 | 22.19654 | -74.28724 | 33960 ft | 441 kts | 305° |
| 2026-04-30 21:44 | 22.22980 | -74.34283 | 33960 ft | 440 kts | 304° |
| 2026-04-30 21:44 | 22.26295 | -74.39831 | 33964 ft | 440 kts | 304° |
| 2026-04-30 21:45 | 22.29611 | -74.45386 | 33960 ft | 439 kts | 304° |
| 2026-04-30 21:45 | 22.32918 | -74.50931 | 33958 ft | 439 kts | 304° |
| 2026-04-30 21:46 | 22.36219 | -74.56472 | 33970 ft | 438 kts | 304° |
| 2026-04-30 21:46 | 22.39512 | -74.62007 | 33956 ft | 437 kts | 304° |
| 2026-04-30 21:47 | 22.42795 | -74.67529 | 33955 ft | 436 kts | 304° |
| 2026-04-30 21:47 | 22.46067 | -74.73038 | 33959 ft | 435 kts | 304° |
| 2026-04-30 21:48 | 22.49331 | -74.78540 | 33961 ft | 434 kts | 304° |
| 2026-04-30 21:48 | 22.52584 | -74.84029 | 33961 ft | 433 kts | 304° |
| 2026-04-30 21:49 | 22.55284 | -74.88590 | 33958 ft | 433 kts | 304° |
| 2026-04-30 21:49 | 22.58526 | -74.94071 | 33958 ft | 432 kts | 304° |
| 2026-04-30 21:50 | 22.61765 | -74.99552 | 33957 ft | 432 kts | 304° |
| 2026-04-30 21:50 | 22.65005 | -75.05042 | 33960 ft | 433 kts | 304° |
| 2026-04-30 21:51 | 22.68243 | -75.10532 | 33964 ft | 433 kts | 304° |
| 2026-04-30 21:51 | 22.71480 | -75.16029 | 33961 ft | 433 kts | 304° |
| 2026-04-30 21:52 | 22.74715 | -75.21527 | 33969 ft | 433 kts | 304° |
| 2026-04-30 21:52 | 22.77948 | -75.27027 | 33957 ft | 432 kts | 304° |
| 2026-04-30 21:53 | 22.81173 | -75.32520 | 33960 ft | 432 kts | 304° |
| 2026-04-30 21:53 | 22.84393 | -75.38011 | 33964 ft | 431 kts | 304° |
| 2026-04-30 21:54 | 22.87608 | -75.43498 | 33958 ft | 431 kts | 304° |
| 2026-04-30 21:54 | 22.90820 | -75.48986 | 33965 ft | 431 kts | 304° |
| 2026-04-30 21:55 | 22.94026 | -75.54470 | 33961 ft | 431 kts | 304° |
| 2026-04-30 21:55 | 22.97236 | -75.59965 | 33962 ft | 431 kts | 304° |
| 2026-04-30 21:56 | 23.00443 | -75.65461 | 33967 ft | 431 kts | 304° |
| 2026-04-30 21:56 | 23.03651 | -75.70966 | 33967 ft | 432 kts | 304° |
| 2026-04-30 21:57 | 23.06839 | -75.76441 | 33966 ft | 432 kts | 304° |
| 2026-04-30 21:57 | 23.10051 | -75.81965 | 33958 ft | 433 kts | 304° |
| 2026-04-30 21:58 | 23.13268 | -75.87501 | 33963 ft | 434 kts | 305° |
| 2026-04-30 21:58 | 23.16487 | -75.93049 | 33968 ft | 434 kts | 305° |
| 2026-04-30 21:59 | 23.19707 | -75.98605 | 33968 ft | 435 kts | 305° |
| 2026-04-30 22:00 | 23.24542 | -76.06957 | 33967 ft | 435 kts | 305° |
| 2026-04-30 22:00 | 23.29374 | -76.15317 | 33970 ft | 435 kts | 305° |
| 2026-04-30 22:01 | 23.32587 | -76.20885 | 33961 ft | 434 kts | 305° |
| 2026-04-30 22:01 | 23.35795 | -76.26449 | 33968 ft | 433 kts | 305° |
| 2026-04-30 22:02 | 23.38989 | -76.31997 | 33960 ft | 432 kts | 305° |
| 2026-04-30 22:02 | 23.42173 | -76.37531 | 33959 ft | 431 kts | 305° |
| 2026-04-30 22:03 | 23.45350 | -76.43060 | 33970 ft | 430 kts | 305° |
| 2026-04-30 22:03 | 23.48517 | -76.48577 | 33969 ft | 429 kts | 304° |
| 2026-04-30 22:04 | 23.51684 | -76.54099 | 33972 ft | 429 kts | 304° |
| 2026-04-30 22:05 | 23.56403 | -76.62341 | 33977 ft | 430 kts | 304° |
| 2026-04-30 22:05 | 23.59569 | -76.67877 | 33975 ft | 431 kts | 304° |
| 2026-04-30 22:06 | 23.62738 | -76.73426 | 33967 ft | 431 kts | 304° |
| 2026-04-30 22:06 | 23.67498 | -76.81770 | 33974 ft | 432 kts | 304° |
| 2026-04-30 22:07 | 23.70673 | -76.87345 | 33962 ft | 433 kts | 304° |
| 2026-04-30 22:07 | 23.73855 | -76.92937 | 33973 ft | 434 kts | 304° |
| 2026-04-30 22:08 | 23.77038 | -76.98538 | 33962 ft | 434 kts | 304° |
| 2026-04-30 22:08 | 23.80220 | -77.04143 | 33963 ft | 435 kts | 304° |
| 2026-04-30 22:09 | 23.83403 | -77.09757 | 33966 ft | 435 kts | 304° |
| 2026-04-30 22:09 | 23.86584 | -77.15374 | 33961 ft | 435 kts | 304° |
| 2026-04-30 22:10 | 23.89765 | -77.20996 | 33971 ft | 435 kts | 304° |
| 2026-04-30 22:10 | 23.92942 | -77.26618 | 33961 ft | 435 kts | 304° |
| 2026-04-30 22:11 | 23.97705 | -77.35059 | 33969 ft | 435 kts | 304° |
| 2026-04-30 22:12 | 24.00881 | -77.40695 | 33964 ft | 436 kts | 304° |
| 2026-04-30 22:12 | 24.04056 | -77.46336 | 33965 ft | 435 kts | 304° |
| 2026-04-30 22:13 | 24.07207 | -77.51941 | 33967 ft | 435 kts | 304° |
| 2026-04-30 22:13 | 24.10375 | -77.57583 | 33975 ft | 435 kts | 304° |
| 2026-04-30 22:14 | 24.13546 | -77.63236 | 33959 ft | 436 kts | 304° |
| 2026-04-30 22:14 | 24.16719 | -77.68899 | 33969 ft | 437 kts | 304° |
| 2026-04-30 22:15 | 24.19901 | -77.74586 | 33967 ft | 439 kts | 304° |
| 2026-04-30 22:15 | 24.23091 | -77.80294 | 33969 ft | 440 kts | 304° |
| 2026-04-30 22:16 | 24.26288 | -77.86019 | 33963 ft | 441 kts | 304° |
| 2026-04-30 22:17 | 24.33047 | -77.97242 | 33960 ft | 441 kts | 307° |
| 2026-04-30 22:17 | 24.38239 | -78.05593 | 33964 ft | 442 kts | 306° |
| 2026-04-30 22:18 | 24.43390 | -78.13987 | 33965 ft | 442 kts | 306° |
| 2026-04-30 22:19 | 24.48528 | -78.22391 | 33966 ft | 442 kts | 306° |
| 2026-04-30 22:20 | 24.53653 | -78.30783 | 33962 ft | 440 kts | 306° |
| 2026-04-30 22:20 | 24.58738 | -78.39129 | 33964 ft | 437 kts | 306° |
| 2026-04-30 22:21 | 24.62107 | -78.44664 | 33968 ft | 435 kts | 306° |
| 2026-04-30 22:21 | 24.65459 | -78.50178 | 33969 ft | 433 kts | 306° |
| 2026-04-30 22:22 | 24.68795 | -78.55672 | 33966 ft | 431 kts | 306° |
| 2026-04-30 22:22 | 24.72123 | -78.61157 | 33965 ft | 431 kts | 305° |
| 2026-04-30 22:23 | 24.75448 | -78.66645 | 33965 ft | 431 kts | 305° |
| 2026-04-30 22:23 | 24.78769 | -78.72134 | 33968 ft | 431 kts | 306° |
| 2026-04-30 22:24 | 24.82059 | -78.77573 | 33389 ft | 422 kts | 306° |
| 2026-04-30 22:24 | 24.83693 | -78.80272 | 32587 ft | 426 kts | 305° |
| 2026-04-30 22:24 | 24.85353 | -78.83016 | 31615 ft | 435 kts | 305° |
| 2026-04-30 22:25 | 24.87047 | -78.85817 | 30594 ft | 444 kts | 304° |
| 2026-04-30 22:25 | 24.88776 | -78.88680 | 29521 ft | 453 kts | 304° |
| 2026-04-30 22:25 | 24.90529 | -78.91588 | 28521 ft | 458 kts | 304° |
| 2026-04-30 22:25 | 24.92278 | -78.94491 | 28275 ft | 454 kts | 304° |
| 2026-04-30 22:26 | 24.95780 | -79.00309 | 28059 ft | 456 kts | 304° |
| 2026-04-30 22:26 | 24.97532 | -79.03220 | 27952 ft | 456 kts | 304° |
| 2026-04-30 22:26 | 24.99283 | -79.06132 | 27843 ft | 456 kts | 303° |
| 2026-04-30 22:27 | 25.01037 | -79.09050 | 27737 ft | 457 kts | 303° |
| 2026-04-30 22:27 | 25.02794 | -79.11975 | 27638 ft | 458 kts | 303° |
| 2026-04-30 22:27 | 25.06310 | -79.17832 | 27439 ft | 459 kts | 303° |
| 2026-04-30 22:28 | 25.09829 | -79.23704 | 27242 ft | 459 kts | 303° |
| 2026-04-30 22:28 | 25.11588 | -79.26640 | 27145 ft | 459 kts | 303° |
| 2026-04-30 22:29 | 25.16855 | -79.35449 | 26851 ft | 458 kts | 303° |
| 2026-04-30 22:29 | 25.18581 | -79.38337 | 26743 ft | 450 kts | 304° |
| 2026-04-30 22:30 | 25.25044 | -79.49172 | 26308 ft | 401 kts | 303° |
| 2026-04-30 22:31 | 25.29558 | -79.56758 | 26065 ft | 384 kts | 303° |
| 2026-04-30 22:32 | 25.33792 | -79.63879 | 24477 ft | 365 kts | 303° |
| 2026-04-30 22:32 | 25.36562 | -79.68546 | 23151 ft | 360 kts | 303° |
| 2026-04-30 22:33 | 25.40675 | -79.75334 | 21118 ft | 350 kts | 305° |
| 2026-04-30 22:33 | 25.43498 | -79.79664 | 19826 ft | 344 kts | 305° |
| 2026-04-30 22:34 | 25.47601 | -79.86033 | 18044 ft | 336 kts | 304° |
| 2026-04-30 22:35 | 25.50278 | -79.90212 | 16788 ft | 329 kts | 304° |
| 2026-04-30 22:36 | 25.55036 | -79.97649 | 14642 ft | 318 kts | 304° |
| 2026-04-30 22:36 | 25.56307 | -79.99637 | 14094 ft | 315 kts | 304° |
| 2026-04-30 22:37 | 25.59942 | -80.05327 | 12987 ft | 288 kts | 304° |
| 2026-04-30 22:37 | 25.61085 | -80.07118 | 12589 ft | 282 kts | 304° |
| 2026-04-30 22:37 | 25.63252 | -80.10514 | 11759 ft | 264 kts | 304° |
| 2026-04-30 22:38 | 25.65377 | -80.13855 | 10326 ft | 265 kts | 303° |
| 2026-04-30 22:38 | 25.66997 | -80.17455 | 9037 ft | 259 kts | 294° |
| 2026-04-30 22:39 | 25.67730 | -80.19256 | 8447 ft | 254 kts | 294° |
| 2026-04-30 22:39 | 25.69889 | -80.24416 | 7586 ft | 227 kts | 294° |
| 2026-04-30 22:40 | 25.71228 | -80.28862 | 6932 ft | 188 kts | 263° |
| 2026-04-30 22:41 | 25.70984 | -80.33189 | 6394 ft | 190 kts | 267° |
| 2026-04-30 22:41 | 25.70853 | -80.36118 | 6010 ft | 190 kts | 268° |
| 2026-04-30 22:42 | 25.70603 | -80.41417 | 5313 ft | 184 kts | 267° |
| 2026-04-30 22:43 | 25.70624 | -80.44250 | 5018 ft | 183 kts | 289° |
| 2026-04-30 22:43 | 25.72804 | -80.45382 | 4357 ft | 194 kts | 358° |
| 2026-04-30 22:44 | 25.75529 | -80.45277 | 3560 ft | 199 kts | 358° |
| 2026-04-30 22:45 | 25.80982 | -80.45101 | 3283 ft | 199 kts | 358° |
| 2026-04-30 22:45 | 25.83710 | -80.45017 | 3081 ft | 196 kts | 358° |
| 2026-04-30 22:46 | 25.86095 | -80.43636 | 3005 ft | 208 kts | 66° |
| 2026-04-30 22:47 | 25.84028 | -80.38290 | 2285 ft | 209 kts | 121° |
| 2026-04-30 22:47 | 25.82586 | -80.35411 | 1115 ft | 208 kts | 123° |
| 2026-04-30 22:48 | 25.81261 | -80.32822 | 645 ft | 177 kts | 122° |
| 2026-04-30 22:49 | 25.79627 | -80.29651 | 43 ft | 130 kts | 121° |
| 2026-04-30 22:49 | 25.79105 | -80.28525 | 18 ft | 15 kts | 84° |